Time;durP1;ratioP1;P1;durP2;ratioP2;P2;SDS_P1;SDS_P2;PMS_P1;PMS_P2;Temp;Humidity;BMP_temperature;BMP_pressure;BME280_temperature;BME280_humidity;BME280_pressure;Samples;Min_cycle;Max_cycle;Signal;HPM_P1;HPM_P2
2024/01/21 00:03:04;;;;;;;3.83;2.23;;;;;;;17.57;44.94;102162.03;10413415;28;20283;-55
2024/01/21 00:08:05;;;;;;;3.30;2.13;;;;;;;17.51;45.20;102149.63;10409041;28;20479;-55
2024/01/21 00:13:05;;;;;;;2.90;1.95;;;;;;;17.50;44.68;102139.94;10447732;28;20075;-54
2024/01/21 00:18:05;;;;;;;2.73;1.93;;;;;;;17.49;45.52;102141.81;10453729;28;20025;-55
2024/01/21 00:23:06;;;;;;;5.93;2.05;;;;;;;17.49;45.10;102130.28;10454158;28;20283;-54
2024/01/21 00:28:07;;;;;;;2.80;2.00;;;;;;;17.52;45.28;102127.09;10453583;28;20431;-53
2024/01/21 00:33:07;;;;;;;2.97;1.73;;;;;;;17.51;46.08;102123.59;10431906;28;20732;-55
2024/01/21 00:38:07;;;;;;;4.67;3.07;;;;;;;17.51;45.43;102120.94;10412002;28;20346;-56
2024/01/21 00:43:08;;;;;;;2.78;1.95;;;;;;;17.49;45.08;102114.19;10412582;28;20537;-54
2024/01/21 00:48:08;;;;;;;2.88;1.88;;;;;;;17.49;44.50;102108.84;10411701;28;21041;-54
2024/01/21 00:53:08;;;;;;;2.60;1.60;;;;;;;17.52;44.75;102094.91;10411606;28;20033;-54
2024/01/21 00:58:09;;;;;;;2.83;1.90;;;;;;;17.52;45.61;102106.47;10411502;28;20290;-54
2024/01/21 01:03:09;;;;;;;2.55;1.67;;;;;;;17.49;44.77;102106.97;10410120;28;20280;-53
2024/01/21 01:08:10;;;;;;;2.67;1.80;;;;;;;17.53;44.67;102088.50;10410749;28;20075;-53
2024/01/21 01:13:10;;;;;;;4.00;2.53;;;;;;;17.49;45.78;102088.19;10446107;28;20555;-54
2024/01/21 01:18:10;;;;;;;2.72;1.80;;;;;;;17.52;44.79;102081.50;10450421;28;20341;-54
2024/01/21 01:23:11;;;;;;;3.17;2.10;;;;;;;17.53;45.51;102077.78;10451759;28;20103;-54
2024/01/21 01:28:11;;;;;;;1.98;1.33;;;;;;;17.53;44.92;102059.81;10451302;28;20264;-53
2024/01/21 01:33:11;;;;;;;2.70;1.80;;;;;;;17.53;45.80;102067.88;10429804;28;20078;-55
2024/01/21 01:38:13;;;;;;;2.65;2.00;;;;;;;17.49;44.63;102047.97;10409629;28;20288;-54
2024/01/21 01:43:13;;;;;;;2.90;1.80;;;;;;;17.49;44.76;102026.50;10409845;28;20025;-56
2024/01/21 01:48:13;;;;;;;2.90;2.00;;;;;;;17.46;44.28;102002.91;10409239;28;20022;-54
2024/01/21 01:53:15;;;;;;;3.05;1.63;;;;;;;17.46;44.82;101986.81;10408580;28;20280;-55
2024/01/21 01:58:16;;;;;;;3.08;2.38;;;;;;;17.52;45.06;101990.31;10408812;28;20117;-54
2024/01/21 02:03:16;;;;;;;4.00;1.90;;;;;;;17.52;43.95;101979.59;10408934;28;20091;-55
2024/01/21 02:08:16;;;;;;;2.53;1.70;;;;;;;17.55;45.19;101968.38;10408698;28;20014;-54
2024/01/21 02:13:17;;;;;;;2.97;1.63;;;;;;;17.52;45.12;101961.66;10444639;28;20780;-54
2024/01/21 02:18:17;;;;;;;2.53;1.38;;;;;;;17.55;43.62;101952.28;10449393;28;20415;-54
2024/01/21 02:23:17;;;;;;;3.47;2.22;;;;;;;17.58;44.08;101953.66;10449494;28;20029;-55
2024/01/21 02:28:18;;;;;;;2.37;1.53;;;;;;;17.53;45.43;101941.81;10445760;28;20032;-55
2024/01/21 02:33:18;;;;;;;3.03;1.67;;;;;;;17.56;45.52;101927.09;10443206;28;20635;-54
2024/01/21 02:38:18;;;;;;;2.90;1.60;;;;;;;17.57;44.34;101911.81;10430103;28;20299;-54
2024/01/21 02:43:19;;;;;;;2.70;1.90;;;;;;;17.56;44.15;101900.28;10423694;28;20342;-54
2024/01/21 02:48:19;;;;;;;2.33;1.43;;;;;;;17.56;44.68;101894.09;10410033;28;20272;-55
2024/01/21 02:53:19;;;;;;;2.43;1.30;;;;;;;17.57;44.02;101887.66;10407180;28;20374;-54
2024/01/21 02:58:19;;;;;;;2.53;1.70;;;;;;;17.57;43.92;101880.44;10406732;28;20290;-55
2024/01/21 03:03:20;;;;;;;2.30;1.67;;;;;;;17.56;44.22;101878.00;10406820;28;20299;-54
2024/01/21 03:08:20;;;;;;;2.67;1.43;;;;;;;17.54;43.54;101852.25;10406522;28;20268;-54
2024/01/21 03:13:20;;;;;;;3.17;1.98;;;;;;;17.52;44.83;101856.25;10441421;28;20665;-54
2024/01/21 03:18:21;;;;;;;2.67;1.83;;;;;;;17.47;44.42;101843.63;10447309;28;20028;-54
2024/01/21 03:23:21;;;;;;;2.65;1.73;;;;;;;17.51;44.33;101835.88;10447515;28;20770;-54
2024/01/21 03:28:22;;;;;;;3.43;1.97;;;;;;;17.55;44.11;101836.97;10446960;28;20017;-52
2024/01/21 03:33:22;;;;;;;1.75;1.23;;;;;;;17.57;44.82;101824.09;10433362;28;20491;-54
2024/01/21 03:38:22;;;;;;;1.83;1.20;;;;;;;17.58;43.91;101822.22;10417975;28;20036;-53
2024/01/21 03:43:23;;;;;;;1.53;1.20;;;;;;;17.58;45.00;101809.63;10404587;28;20037;-55
2024/01/21 03:48:23;;;;;;;2.60;1.40;;;;;;;17.55;43.53;101802.13;10405758;28;20804;-54
2024/01/21 03:53:23;;;;;;;3.17;1.50;;;;;;;17.51;44.36;101799.13;10405123;28;20276;-54
2024/01/21 03:58:23;;;;;;;1.93;1.23;;;;;;;17.50;45.11;101805.56;10405733;28;20752;-55
2024/01/21 04:03:24;;;;;;;3.05;1.90;;;;;;;17.49;44.68;101803.16;10405653;28;20276;-55
2024/01/21 04:08:25;;;;;;;2.47;1.35;;;;;;;17.49;43.72;101787.88;10404808;28;20516;-55
2024/01/21 04:13:25;;;;;;;2.42;1.50;;;;;;;17.54;44.72;101787.09;10442084;28;20032;-54
2024/01/21 04:18:25;;;;;;;2.10;1.07;;;;;;;17.52;45.02;101765.91;10446222;28;20043;-55
2024/01/21 04:23:26;;;;;;;2.23;1.47;;;;;;;17.52;44.78;101760.56;10445715;28;20313;-56
2024/01/21 04:28:27;;;;;;;1.50;1.05;;;;;;;17.53;44.08;101743.38;10444736;28;20287;-55
2024/01/21 04:33:27;;;;;;;2.17;1.17;;;;;;;17.52;43.66;101743.63;10422154;28;20082;-55
2024/01/21 04:38:27;;;;;;;2.17;1.13;;;;;;;17.53;44.28;101732.66;10425107;28;20283;-56
2024/01/21 04:43:28;;;;;;;2.60;1.63;;;;;;;17.50;45.09;101719.75;10421605;28;20363;-53
2024/01/21 04:48:28;;;;;;;2.23;1.37;;;;;;;17.51;45.02;101705.28;10424418;28;20272;-55
2024/01/21 04:53:28;;;;;;;2.17;1.30;;;;;;;17.54;45.26;101704.78;10425759;28;20276;-55
2024/01/21 04:58:29;;;;;;;2.33;1.27;;;;;;;17.53;44.25;101684.41;10428533;28;20287;-54
2024/01/21 05:03:29;;;;;;;1.97;1.13;;;;;;;17.49;44.66;101659.16;10427794;28;20028;-55
2024/01/21 05:08:29;;;;;;;1.77;1.00;;;;;;;17.48;44.17;101656.75;10432190;28;20284;-55
2024/01/21 05:13:30;;;;;;;1.95;1.02;;;;;;;17.51;44.96;101683.81;10436859;28;20287;-55
2024/01/21 05:18:30;;;;;;;1.48;1.10;;;;;;;17.52;44.51;101672.06;10427410;28;20071;-55
2024/01/21 05:23:32;;;;;;;1.93;1.10;;;;;;;17.52;43.92;101649.78;10425586;28;20523;-55
2024/01/21 05:28:33;;;;;;;1.63;1.05;;;;;;;17.52;44.74;101650.59;10428750;28;20758;-55
2024/01/21 05:33:36;;;;;;;1.67;1.00;;;;;;;17.50;45.22;101671.50;10425980;28;20024;-54
2024/01/21 05:38:36;;;;;;;1.65;1.25;;;;;;;17.46;44.40;101656.22;10428864;28;20315;-54
2024/01/21 05:43:37;;;;;;;2.30;1.35;;;;;;;17.50;44.69;101633.16;10432071;28;20041;-55
2024/01/21 05:48:37;;;;;;;1.93;1.10;;;;;;;17.50;45.25;101593.72;10428074;28;20469;-55
2024/01/21 05:53:41;;;;;;;1.58;0.90;;;;;;;17.52;45.26;101612.22;10413556;28;20268;-55
2024/01/21 05:58:42;;;;;;;1.92;0.90;;;;;;;17.53;44.31;101603.94;10410457;28;20485;-55
2024/01/21 06:03:42;;;;;;;2.00;1.00;;;;;;;17.52;44.05;101620.28;10413094;28;20033;-56
2024/01/21 06:08:42;;;;;;;1.67;0.80;;;;;;;17.51;45.40;101610.63;10449719;28;20287;-55
2024/01/21 06:13:43;;;;;;;2.92;1.40;;;;;;;17.49;45.27;101605.53;10415297;28;20280;-55
2024/01/21 06:18:43;;;;;;;1.90;1.07;;;;;;;17.48;44.55;101617.34;10420642;28;20067;-56
2024/01/21 06:23:46;;;;;;;5.10;1.53;;;;;;;17.62;45.20;101619.50;10412508;28;20294;-56
2024/01/21 06:28:47;;;;;;;3.08;1.30;;;;;;;17.64;44.19;101639.63;10406906;28;20802;-55
2024/01/21 06:33:47;;;;;;;2.97;1.70;;;;;;;17.66;46.47;101640.16;10414547;28;20218;-54
2024/01/21 06:38:47;;;;;;;6.33;1.37;;;;;;;17.64;45.76;101628.06;10408233;28;20495;-55
2024/01/21 06:43:49;;;;;;;9.18;2.00;;;;;;;17.67;46.50;101638.28;10410073;28;20890;-54
2024/01/21 06:48:49;;;;;;;7.57;1.67;;;;;;;17.72;46.04;101639.13;10420328;28;20028;-55
2024/01/21 06:53:49;;;;;;;6.77;2.23;;;;;;;17.59;46.53;101625.41;10422282;28;20567;-55
2024/01/21 06:58:50;;;;;;;5.17;1.60;;;;;;;17.62;46.01;101643.63;10420162;28;20303;-55
2024/01/21 07:03:50;;;;;;;6.82;1.80;;;;;;;17.53;46.27;101638.81;10423157;28;20279;-56
2024/01/21 07:08:50;;;;;;;7.73;1.77;;;;;;;17.46;45.43;101624.03;10432254;28;20045;-56
2024/01/21 07:13:51;;;;;;;4.35;1.60;;;;;;;17.45;45.36;101583.00;10420863;28;20306;-57
2024/01/21 07:18:51;;;;;;;6.47;1.50;;;;;;;17.39;46.23;101567.97;10423575;28;20029;-57
2024/01/21 07:23:51;;;;;;;5.40;2.00;;;;;;;17.37;46.67;101574.69;10426443;28;20283;-56
2024/01/21 07:28:52;;;;;;;4.80;1.75;;;;;;;17.39;45.05;101562.63;10419009;28;20272;-55
2024/01/21 07:33:52;;;;;;;3.13;1.70;;;;;;;17.40;46.47;101580.31;10418264;28;20469;-55
2024/01/21 07:38:52;;;;;;;4.17;1.60;;;;;;;17.40;45.81;101576.81;10435143;28;20298;-57
2024/01/21 07:43:53;;;;;;;5.43;1.10;;;;;;;17.43;45.84;101598.56;10410710;28;20333;-56
2024/01/21 07:48:53;;;;;;;3.00;1.50;;;;;;;17.42;44.95;101602.31;10416833;28;20739;-57
2024/01/21 07:53:53;;;;;;;5.32;2.00;;;;;;;17.43;45.60;101632.63;10407301;28;20272;-56
2024/01/21 07:58:54;;;;;;;7.03;1.80;;;;;;;17.40;44.75;101639.28;10406146;28;20080;-56
2024/01/21 08:03:54;;;;;;;3.55;1.67;;;;;;;17.43;45.08;101646.03;10407082;28;20017;-57
2024/01/21 08:08:54;;;;;;;3.58;1.67;;;;;;;17.41;44.70;101656.22;10436297;28;20052;-56
2024/01/21 08:13:55;;;;;;;4.47;1.40;;;;;;;17.39;44.22;101643.03;10425916;28;20557;-56
2024/01/21 08:18:55;;;;;;;4.55;1.75;;;;;;;17.41;45.23;101654.34;10449097;28;20283;-56
2024/01/21 08:23:56;;;;;;;4.43;2.10;;;;;;;17.43;44.62;101672.84;10433608;28;20037;-56
2024/01/21 08:28:56;;;;;;;3.90;1.70;;;;;;;17.44;45.20;101672.56;10416945;28;20286;-56
2024/01/21 08:33:56;;;;;;;2.70;1.53;;;;;;;17.47;44.18;101666.66;10421839;28;20029;-56
2024/01/21 08:38:57;;;;;;;3.33;1.90;;;;;;;17.49;43.23;101666.41;10429055;28;20840;-55
2024/01/21 08:43:57;;;;;;;6.82;1.73;;;;;;;17.39;43.65;101679.78;10429869;28;20337;-56
2024/01/21 08:48:58;;;;;;;5.85;2.10;;;;;;;17.39;43.13;101675.22;10430716;28;20021;-56
2024/01/21 08:53:59;;;;;;;5.63;1.75;;;;;;;17.45;43.47;101668.81;10430603;28;20381;-56
2024/01/21 08:59:00;;;;;;;4.72;1.73;;;;;;;17.49;43.01;101674.44;10418332;28;20060;-56
2024/01/21 09:04:00;;;;;;;6.63;1.97;;;;;;;17.44;44.46;101674.44;10412486;28;20120;-57
2024/01/21 09:09:01;;;;;;;6.78;1.70;;;;;;;17.34;43.27;101675.22;10413895;28;20332;-56
2024/01/21 09:14:01;;;;;;;4.27;1.70;;;;;;;17.40;43.52;101690.22;10441407;28;20030;-56
2024/01/21 09:19:02;;;;;;;4.78;2.35;;;;;;;17.34;43.58;101703.91;10428048;28;20303;-56
2024/01/21 09:24:04;;;;;;;5.75;1.88;;;;;;;17.38;43.51;101697.72;10420310;28;20033;-55
2024/01/21 09:29:04;;;;;;;4.30;1.58;;;;;;;17.44;43.33;101696.69;10429532;28;20037;-57
2024/01/21 09:34:05;;;;;;;8.37;1.90;;;;;;;17.46;42.48;101685.72;10431402;28;20021;-55
2024/01/21 09:39:05;;;;;;;4.33;2.33;;;;;;;17.45;43.50;101692.13;10409060;28;20299;-56
2024/01/21 09:44:06;;;;;;;2.88;1.63;;;;;;;17.47;43.60;101685.44;10412156;28;20319;-56
2024/01/21 09:49:06;;;;;;;4.70;1.42;;;;;;;17.41;42.97;101686.50;10432465;28;20136;-56
2024/01/21 09:54:07;;;;;;;8.15;2.38;;;;;;;17.15;44.07;101701.66;10423645;28;20056;-55
2024/01/21 09:59:09;;;;;;;7.57;2.50;;;;;;;17.14;45.07;101712.66;10423072;28;20022;-57
2024/01/21 10:04:10;;;;;;;5.68;2.55;;;;;;;17.13;46.07;101703.81;10427969;28;20282;-56
2024/01/21 10:09:11;;;;;;;8.95;2.25;;;;;;;17.13;46.70;101693.09;10428705;28;20565;-56
2024/01/21 10:14:12;;;;;;;7.95;2.13;;;;;;;17.10;47.34;101693.63;10424170;28;20041;-55
2024/01/21 10:19:14;;;;;;;17.63;2.83;;;;;;;17.05;48.25;101704.31;10434363;28;20037;-56
2024/01/21 10:24:19;;;;;;;10.48;2.20;;;;;;;17.07;47.35;101707.53;10452179;28;20279;-53
2024/01/21 10:29:19;;;;;;;14.77;2.17;;;;;;;17.08;48.02;101719.06;10452272;28;20025;-55
2024/01/21 10:34:20;;;;;;;19.00;4.05;;;;;;;17.05;47.25;101715.03;10417755;28;20037;-56
2024/01/21 10:39:20;;;;;;;15.57;2.83;;;;;;;17.12;47.05;101694.16;10410539;28;20038;-54
2024/01/21 10:44:21;;;;;;;18.42;2.63;;;;;;;17.08;46.57;101676.19;10409252;28;20061;-54
2024/01/21 10:49:22;;;;;;;15.80;4.28;;;;;;;17.03;48.53;101673.47;10408378;28;20022;-56
2024/01/21 10:54:25;;;;;;;30.40;4.45;;;;;;;17.02;48.17;101677.22;10409958;28;20519;-55
2024/01/21 10:59:25;;;;;;;34.17;6.00;;;;;;;17.03;49.48;101676.16;10409532;28;20412;-54
2024/01/21 11:04:26;;;;;;;28.33;4.57;;;;;;;16.97;48.62;101672.66;10409637;28;20040;-55
2024/01/21 11:09:29;;;;;;;32.13;5.65;;;;;;;16.99;49.34;101662.50;10413927;28;20901;-55
2024/01/21 11:14:30;;;;;;;15.07;3.88;;;;;;;17.00;50.02;101655.25;10449047;28;20137;-55
2024/01/21 11:19:38;;;;;;;26.75;6.35;;;;;;;16.99;50.24;101659.00;10449934;28;20071;-54
2024/01/21 11:24:38;;;;;;;17.38;3.72;;;;;;;17.00;48.43;101661.41;10450129;28;20115;-55
2024/01/21 11:29:39;;;;;;;20.25;4.57;;;;;;;16.99;48.78;101669.72;10428763;28;20442;-54
2024/01/21 11:34:42;;;;;;;14.45;3.05;;;;;;;16.99;49.21;101672.41;10410891;28;20038;-53
2024/01/21 11:39:43;;;;;;;13.98;3.22;;;;;;;17.06;49.01;101673.78;10408247;28;20025;-53
2024/01/21 11:44:44;;;;;;;24.85;5.03;;;;;;;17.20;49.77;101656.16;10449514;28;20116;-53
2024/01/21 11:49:44;;;;;;;18.00;3.75;;;;;;;17.21;48.79;101656.94;10449524;28;20021;-53
2024/01/21 11:54:47;;;;;;;13.97;3.23;;;;;;;17.24;51.45;101672.50;10444800;28;20025;-54
2024/01/21 11:59:48;;;;;;;11.90;2.70;;;;;;;17.29;51.38;101664.50;10409247;28;20770;-53
2024/01/21 12:04:48;;;;;;;13.47;3.33;;;;;;;17.23;51.33;101668.19;10414248;28;20027;-55
2024/01/21 12:09:48;;;;;;;10.80;3.93;;;;;;;17.13;51.72;101668.16;10423222;28;20282;-56
2024/01/21 12:14:49;;;;;;;12.18;3.47;;;;;;;17.24;51.98;101683.22;10456182;28;20353;-54
2024/01/21 12:19:49;;;;;;;10.77;2.93;;;;;;;17.22;50.20;101664.72;10457079;28;20037;-54
2024/01/21 12:24:53;;;;;;;14.30;3.03;;;;;;;17.17;50.98;101666.59;10457118;28;20336;-56
2024/01/21 12:29:54;;;;;;;8.57;2.33;;;;;;;17.21;50.28;101654.28;10459513;28;20259;-53
2024/01/21 12:34:54;;;;;;;19.55;4.63;;;;;;;17.17;49.35;101651.31;10416230;28;20075;-55
2024/01/21 12:39:55;;;;;;;14.17;3.07;;;;;;;17.13;50.08;101654.75;10415034;28;20041;-56
2024/01/21 12:44:55;;;;;;;15.32;4.03;;;;;;;17.00;50.24;101660.63;10415066;28;20728;-54
2024/01/21 12:49:55;;;;;;;14.70;2.77;;;;;;;16.96;50.49;101652.31;10414660;28;20029;-53
2024/01/21 12:54:55;;;;;;;19.63;4.23;;;;;;;16.94;51.32;101654.44;10422473;28;20346;-57
2024/01/21 12:59:56;;;;;;;13.90;3.47;;;;;;;16.96;51.70;101644.25;10428591;28;20338;-55
2024/01/21 13:04:56;;;;;;;9.18;2.80;;;;;;;16.99;50.74;101618.81;10430156;28;20332;-54
2024/01/21 13:09:57;;;;;;;11.43;3.03;;;;;;;17.02;50.21;101643.19;10429078;28;20041;-55
2024/01/21 13:14:58;;;;;;;13.93;2.35;;;;;;;17.03;51.49;101652.84;10429596;28;20267;-56
2024/01/21 13:19:58;;;;;;;12.63;3.00;;;;;;;17.02;50.51;101645.88;10423471;28;20033;-52
2024/01/21 13:24:59;;;;;;;11.10;2.30;;;;;;;17.00;50.91;101644.53;10427059;28;20279;-54
2024/01/21 13:35:19;;;;;;;5.82;1.90;;;;;;;16.94;51.70;101619.63;10417281;28;20116;-56
2024/01/21 13:40:19;;;;;;;6.78;2.10;;;;;;;16.94;50.29;101607.03;10412128;28;20109;-55
2024/01/21 13:45:19;;;;;;;9.87;2.53;;;;;;;16.93;50.32;101604.63;10412495;28;20037;-53
2024/01/21 13:50:19;;;;;;;7.50;2.20;;;;;;;16.91;50.16;101598.69;10411245;28;20279;-54
2024/01/21 13:55:20;;;;;;;7.30;2.67;;;;;;;16.88;50.28;101602.69;10412259;28;20785;-55
2024/01/21 14:00:24;;;;;;;7.22;2.10;;;;;;;16.91;50.02;101596.81;10410601;28;20286;-53
2024/01/21 14:05:25;;;;;;;5.03;1.90;;;;;;;16.91;49.87;101609.41;10411270;28;20029;-54
2024/01/21 14:10:25;;;;;;;4.75;1.80;;;;;;;16.88;50.25;101593.84;10426023;28;20068;-55
2024/01/21 14:15:26;;;;;;;6.10;1.77;;;;;;;16.91;48.51;101590.66;10450428;28;20395;-55
2024/01/21 14:20:26;;;;;;;5.53;1.90;;;;;;;16.90;49.41;101586.34;10451804;28;20075;-55
2024/01/21 14:25:30;;;;;;;4.53;1.40;;;;;;;16.85;50.19;101589.03;10451233;28;20032;-53
2024/01/21 14:30:33;;;;;;;5.95;1.95;;;;;;;16.84;49.85;101606.97;10446514;28;20365;-55
2024/01/21 14:35:33;;;;;;;5.32;2.00;;;;;;;16.87;48.58;101602.97;10409925;28;20029;-55
2024/01/21 14:40:34;;;;;;;7.50;2.00;;;;;;;16.85;48.59;101603.22;10442214;28;20021;-53
2024/01/21 14:45:34;;;;;;;3.75;1.50;;;;;;;16.90;48.55;101607.78;10409114;28;20291;-52
2024/01/21 14:50:35;;;;;;;4.95;1.95;;;;;;;16.90;48.95;101597.06;10426376;28;20647;-56
2024/01/21 14:55:36;;;;;;;6.15;2.25;;;;;;;16.97;50.22;101610.25;10425214;28;20457;-50
2024/01/21 15:00:37;;;;;;;10.15;3.40;;;;;;;16.99;49.25;101603.53;10429752;28;20466;-52
2024/01/21 15:05:37;;;;;;;15.52;4.50;;;;;;;17.02;49.38;101578.91;10424886;28;20116;-54
2024/01/21 15:10:37;;;;;;;9.87;3.00;;;;;;;17.06;50.02;101565.81;10426582;28;20082;-55
2024/01/21 15:15:38;;;;;;;5.87;2.43;;;;;;;17.08;48.94;101564.47;10413440;28;20280;-52
2024/01/21 15:20:39;;;;;;;11.07;2.45;;;;;;;17.10;48.42;101548.13;10407884;28;20276;-55
2024/01/21 15:25:39;;;;;;;9.90;3.20;;;;;;;17.11;48.84;101537.13;10408115;28;20028;-53
2024/01/21 15:30:43;;;;;;;7.88;2.20;;;;;;;17.06;48.35;101521.06;10411307;28;20033;-56
2024/01/21 15:35:43;;;;;;;5.40;2.20;;;;;;;17.01;48.20;101462.09;10410172;28;20029;-55
2024/01/21 15:40:43;;;;;;;6.17;2.90;;;;;;;17.01;49.45;101533.63;10421761;28;20029;-55
2024/01/21 15:45:45;;;;;;;16.30;3.97;;;;;;;17.25;49.00;101550.81;10442424;28;20267;-55
2024/01/21 15:50:45;;;;;;;9.18;2.97;;;;;;;17.53;49.52;101552.19;10447568;28;20272;-54
2024/01/21 15:55:45;;;;;;;9.65;3.40;;;;;;;17.53;50.00;101574.44;10447426;28;20025;-55
2024/01/21 16:00:47;;;;;;;15.70;2.53;;;;;;;17.47;49.80;101556.75;10435878;28;20034;-55
2024/01/21 16:05:47;;;;;;;11.38;3.08;;;;;;;17.56;49.86;101519.47;10425641;28;20619;-53
2024/01/21 16:10:47;;;;;;;7.10;2.80;;;;;;;17.64;49.23;101532.34;10441533;28;20045;-53
2024/01/21 16:15:48;;;;;;;9.13;3.67;;;;;;;17.94;49.87;101536.09;10434373;28;20707;-52
2024/01/21 16:20:48;;;;;;;9.98;2.88;;;;;;;18.00;50.97;101530.47;10422513;28;20393;-55
2024/01/21 16:25:48;;;;;;;11.53;4.20;;;;;;;18.13;52.58;101510.31;10444700;28;20609;-55
2024/01/21 16:30:49;;;;;;;10.55;3.40;;;;;;;18.26;53.05;101493.63;10432831;28;20289;-56
2024/01/21 16:35:50;;;;;;;10.75;3.83;;;;;;;18.23;53.99;101455.75;10405344;28;20044;-57
2024/01/21 16:40:50;;;;;;;13.55;3.58;;;;;;;18.27;53.33;101468.38;10413543;28;20120;-55
2024/01/21 16:45:51;;;;;;;15.63;4.07;;;;;;;18.23;54.82;101467.31;10419300;28;20032;-56
2024/01/21 16:50:54;;;;;;;14.40;4.28;;;;;;;18.27;52.47;101483.69;10428442;28;20291;-57
2024/01/21 16:55:55;;;;;;;12.60;4.45;;;;;;;18.29;52.96;101494.94;10412367;28;20510;-55
2024/01/21 17:00:56;;;;;;;16.80;4.35;;;;;;;18.15;55.26;101507.34;10427272;28;20025;-51
2024/01/21 17:05:57;;;;;;;20.63;4.43;;;;;;;17.90;55.58;101524.31;10452540;28;20009;-52
2024/01/21 17:11:03;;;;;;;10.60;3.30;;;;;;;17.82;54.62;101518.41;10445983;28;20056;-50
2024/01/21 17:16:04;;;;;;;9.85;4.03;;;;;;;17.76;54.57;101492.69;10451125;28;20279;-49
2024/01/21 17:21:04;;;;;;;12.77;4.57;;;;;;;17.66;53.58;101499.91;10451852;28;20029;-53
2024/01/21 17:26:05;;;;;;;16.77;5.57;;;;;;;17.59;55.30;101500.16;10452060;28;20081;-49
2024/01/21 17:31:06;;;;;;;15.55;3.47;;;;;;;17.56;55.43;101486.50;10447559;28;20299;-54
2024/01/21 17:36:07;;;;;;;16.17;3.87;;;;;;;17.54;54.67;101498.28;10409151;28;20018;-54
2024/01/21 17:41:07;;;;;;;16.00;4.10;;;;;;;17.43;54.03;101485.97;10407263;28;20825;-56
2024/01/21 17:46:12;;;;;;;12.87;3.80;;;;;;;17.38;55.21;101494.00;10424375;28;20018;-51
2024/01/21 17:51:13;;;;;;;9.57;3.55;;;;;;;17.30;54.16;101489.19;10429114;28;20690;-50
2024/01/21 17:56:16;;;;;;;17.48;3.58;;;;;;;17.30;53.72;101474.97;10413631;28;20389;-51
2024/01/21 18:01:16;;;;;;;7.38;3.20;;;;;;;17.28;54.00;101448.41;10384498;28;20049;-51
2024/01/21 18:06:17;;;;;;;6.88;3.20;;;;;;;17.32;54.50;101465.59;10413598;28;20017;-49
2024/01/21 18:11:17;;;;;;;10.73;3.10;;;;;;;17.32;53.19;101462.09;10419366;28;20081;-52
2024/01/21 18:16:21;;;;;;;11.97;2.77;;;;;;;17.32;53.69;101441.47;10431330;28;20647;-50
2024/01/21 18:21:22;;;;;;;10.00;3.08;;;;;;;17.29;53.99;101425.94;10448555;28;20321;-54
2024/01/21 18:26:22;;;;;;;9.48;2.67;;;;;;;17.29;54.18;101427.81;10433132;28;20104;-51
2024/01/21 18:31:22;;;;;;;13.02;3.95;;;;;;;17.30;53.17;101410.66;10445783;28;20017;-51
2024/01/21 18:36:23;;;;;;;10.63;3.10;;;;;;;17.28;54.10;101408.22;10448213;28;20138;-51
2024/01/21 18:41:24;;;;;;;7.43;3.00;;;;;;;17.28;53.48;101410.91;10441236;28;20272;-51
2024/01/21 18:46:24;;;;;;;13.18;2.67;;;;;;;17.28;52.99;101407.41;10431490;28;20025;-50
2024/01/21 18:51:25;;;;;;;10.48;2.53;;;;;;;17.25;53.07;101385.44;10431414;28;20033;-52
2024/01/21 18:56:25;;;;;;;7.93;2.85;;;;;;;17.32;52.26;101387.06;10438817;28;20550;-49
2024/01/21 19:01:28;;;;;;;6.90;2.27;;;;;;;17.31;52.58;101385.47;10409388;28;20052;-52
2024/01/21 19:06:28;;;;;;;7.82;2.65;;;;;;;17.33;51.14;101384.09;10406219;28;20349;-51
2024/01/21 19:11:30;;;;;;;5.03;2.00;;;;;;;17.33;51.24;101361.84;10411458;28;20037;-50
2024/01/21 19:16:30;;;;;;;6.82;2.85;;;;;;;17.33;52.16;101357.31;10406279;28;20048;-51
2024/01/21 19:21:30;;;;;;;6.10;2.63;;;;;;;17.30;51.38;101343.66;10414439;28;20021;-52
2024/01/21 19:26:30;;;;;;;7.53;2.28;;;;;;;17.28;51.90;101324.31;10415212;28;20280;-50
2024/01/21 19:31:33;;;;;;;5.43;2.43;;;;;;;17.29;50.92;101316.03;10419783;28;20219;-50
2024/01/21 19:36:33;;;;;;;4.15;2.17;;;;;;;17.26;51.46;101297.81;10405274;28;20791;-51
2024/01/21 19:41:34;;;;;;;3.33;1.90;;;;;;;17.28;50.84;101289.47;10411984;28;20059;-52
2024/01/21 19:46:34;;;;;;;3.80;1.67;;;;;;;17.27;52.18;101275.28;10414879;28;20022;-52
2024/01/21 19:51:34;;;;;;;4.70;1.70;;;;;;;17.27;52.13;101237.75;10404605;28;20029;-53
2024/01/21 19:56:35;;;;;;;4.95;2.15;;;;;;;17.27;51.20;101220.88;10404019;28;20747;-51
2024/01/21 20:01:38;;;;;;;4.63;2.30;;;;;;;17.30;51.31;101233.75;10415925;28;20033;-53
2024/01/21 20:06:38;;;;;;;5.00;2.00;;;;;;;17.28;51.21;101225.97;10428580;28;20279;-50
2024/01/21 20:11:39;;;;;;;5.60;3.08;;;;;;;17.27;50.41;101215.53;10412520;28;20382;-53
2024/01/21 20:16:39;;;;;;;5.37;1.83;;;;;;;17.27;51.35;101192.19;10445783;28;20037;-54
2024/01/21 20:21:39;;;;;;;8.37;2.30;;;;;;;17.30;51.31;101198.91;10394729;28;20849;-55
2024/01/21 20:26:40;;;;;;;5.60;1.63;;;;;;;17.24;50.40;101161.41;10422444;28;20280;-53
2024/01/21 20:31:40;;;;;;;6.43;2.13;;;;;;;17.26;50.02;101169.16;10441225;28;20293;-56
2024/01/21 20:36:42;;;;;;;6.20;2.30;;;;;;;17.27;50.82;101168.09;10432760;28;20294;-55
2024/01/21 20:41:42;;;;;;;2.83;1.67;;;;;;;17.25;50.10;101148.81;10424268;28;20375;-54
2024/01/21 20:46:42;;;;;;;3.60;1.50;;;;;;;17.28;49.55;101147.44;10415134;28;20021;-56
2024/01/21 20:51:43;;;;;;;4.93;2.00;;;;;;;17.28;50.28;101150.91;10414948;28;20358;-55
2024/01/21 20:56:43;;;;;;;4.67;1.97;;;;;;;17.41;49.91;101139.63;10414403;28;20842;-55
2024/01/21 21:01:43;;;;;;;6.30;2.33;;;;;;;17.45;49.27;101129.13;10413419;28;20272;-55
2024/01/21 21:06:44;;;;;;;3.37;1.43;;;;;;;17.45;48.78;101113.84;10414293;28;20322;-55
2024/01/21 21:11:44;;;;;;;3.67;1.60;;;;;;;17.48;48.96;101110.59;10437803;28;20298;-54
2024/01/21 21:16:44;;;;;;;5.72;2.60;;;;;;;17.54;49.31;101098.78;10454812;28;20291;-55
2024/01/21 21:21:45;;;;;;;5.93;1.77;;;;;;;17.52;48.29;101082.19;10442794;28;20492;-55
2024/01/21 21:26:45;;;;;;;3.60;2.03;;;;;;;17.59;48.27;101089.09;10413646;28;20299;-55
2024/01/21 21:31:45;;;;;;;4.23;1.37;;;;;;;17.57;48.39;101080.53;10421360;28;20024;-55
2024/01/21 21:36:46;;;;;;;4.60;1.73;;;;;;;17.56;48.76;101060.16;10411471;28;20291;-55
2024/01/21 21:41:46;;;;;;;3.33;2.27;;;;;;;17.58;48.16;101058.78;10413167;28;20279;-54
2024/01/21 21:46:46;;;;;;;2.53;1.77;;;;;;;17.56;48.50;101026.09;10416740;28;20278;-53
2024/01/21 21:51:49;;;;;;;4.83;2.70;;;;;;;17.56;48.46;101039.50;10422018;28;20853;-56
2024/01/21 21:56:49;;;;;;;2.38;1.45;;;;;;;17.57;48.67;101043.78;10412056;28;20284;-54
2024/01/21 22:01:49;;;;;;;3.87;1.67;;;;;;;17.59;47.71;101000.59;10412336;28;20029;-54
2024/01/21 22:06:50;;;;;;;2.90;1.30;;;;;;;17.58;47.77;100931.97;10411817;28;20832;-55
2024/01/21 22:11:50;;;;;;;2.63;1.17;;;;;;;17.61;48.23;100875.91;10435726;28;20369;-53
2024/01/21 22:16:50;;;;;;;3.40;1.77;;;;;;;17.60;47.32;100898.44;10452450;28;20326;-54
2024/01/21 22:21:51;;;;;;;2.38;1.30;;;;;;;17.65;48.07;100855.50;10451279;28;20032;-53
2024/01/21 22:26:51;;;;;;;2.67;1.30;;;;;;;17.65;48.00;100860.84;10452578;28;20025;-54
2024/01/21 22:31:51;;;;;;;2.58;1.58;;;;;;;17.62;46.94;100852.56;10440084;28;20279;-56
2024/01/21 22:36:52;;;;;;;1.97;1.37;;;;;;;17.56;47.93;100846.47;10409056;28;20079;-52
2024/01/21 22:41:52;;;;;;;3.17;1.33;;;;;;;17.61;47.11;100837.56;10410712;28;20303;-52
2024/01/21 22:46:53;;;;;;;2.38;1.30;;;;;;;17.57;48.27;100821.25;10409967;28;20286;-53
2024/01/21 22:51:54;;;;;;;1.83;1.27;;;;;;;17.55;48.26;100775.16;10410268;28;20033;-56
2024/01/21 22:56:54;;;;;;;2.28;1.50;;;;;;;17.57;46.92;100778.34;10409686;28;20025;-54
2024/01/21 23:01:54;;;;;;;1.90;1.00;;;;;;;17.66;47.32;100731.06;10409885;28;20064;-54